Time;durP1;ratioP1;P1;durP2;ratioP2;P2;SDS_P1;SDS_P2;PMS_P1;PMS_P2;Temp;Humidity;BMP_temperature;BMP_pressure;BME280_temperature;BME280_humidity;BME280_pressure;Samples;Min_cycle;Max_cycle;Signal;HPM_P1;HPM_P2
2024/01/13 00:02:19;;;;;;;11.85;10.65;;;7.90;56.20;;;;;;5011102;28;20033;-77
2024/01/13 00:04:45;;;;;;;11.00;9.82;;;7.90;56.30;;;;;;5005631;28;20036;-75
2024/01/13 00:07:11;;;;;;;11.57;10.40;;;7.90;56.30;;;;;;5006702;28;21231;-75
2024/01/13 00:09:37;;;;;;;12.57;11.35;;;7.90;56.20;;;;;;5006984;28;20186;-76
2024/01/13 00:12:04;;;;;;;12.13;11.00;;;7.90;56.30;;;;;;5011796;28;20091;-78
2024/01/13 00:14:30;;;;;;;11.60;10.40;;;7.80;56.10;;;;;;5009807;28;20044;-71
2024/01/13 00:16:56;;;;;;;12.38;11.07;;;7.90;56.30;;;;;;5008399;28;20350;-77
2024/01/13 00:19:23;;;;;;;11.60;10.40;;;7.80;56.10;;;;;;5019229;28;20037;-76
2024/01/13 00:21:49;;;;;;;12.43;10.95;;;7.80;56.10;;;;;;5011416;28;20029;-73
2024/01/13 00:24:15;;;;;;;11.93;10.73;;;7.80;56.10;;;;;;5008881;28;20367;-76
2024/01/13 00:26:41;;;;;;;12.05;10.85;;;7.80;56.10;;;;;;5008214;28;20028;-75
2024/01/13 00:29:08;;;;;;;12.55;11.25;;;7.80;56.20;;;;;;5009218;28;20100;-77
2024/01/13 00:31:34;;;;;;;12.75;11.50;;;7.80;56.10;;;;;;5008251;28;20034;-75
2024/01/13 00:34:00;;;;;;;12.10;10.90;;;7.80;56.20;;;;;;5013317;28;20083;-76
2024/01/13 00:36:27;;;;;;;12.05;10.68;;;7.80;56.20;;;;;;5012511;28;20429;-75
2024/01/13 00:38:53;;;;;;;11.52;10.32;;;7.80;56.20;;;;;;5009577;28;20067;-76
2024/01/13 00:41:19;;;;;;;12.27;11.15;;;7.70;56.00;;;;;;5025176;28;20050;-77
2024/01/13 00:43:45;;;;;;;11.95;10.75;;;7.70;56.00;;;;;;5011340;28;20112;-74
2024/01/13 00:46:11;;;;;;;12.88;11.48;;;7.70;56.00;;;;;;5009926;28;20063;-76
2024/01/13 00:48:37;;;;;;;13.25;12.05;;;7.70;56.00;;;;;;5020191;28;20052;-73
2024/01/13 00:51:03;;;;;;;12.82;10.98;;;7.70;56.00;;;;;;5008155;28;20537;-75
2024/01/13 00:53:31;;;;;;;13.43;12.02;;;7.70;56.00;;;;;;5007463;28;20121;-76
2024/01/13 00:55:58;;;;;;;12.50;11.20;;;7.70;56.10;;;;;;5013720;28;20029;-74
2024/01/13 00:58:24;;;;;;;12.93;11.70;;;7.70;56.00;;;;;;5015081;28;20068;-77
2024/01/13 01:00:50;;;;;;;13.35;12.13;;;7.70;56.00;;;;;;4998857;28;20030;-76
2024/01/13 01:03:18;;;;;;;13.95;12.55;;;7.60;55.80;;;;;;5006722;28;20396;-73
2024/01/13 01:05:44;;;;;;;13.70;12.35;;;7.60;56.40;;;;;;5008265;28;20161;-74
2024/01/13 01:08:10;;;;;;;13.15;11.75;;;7.60;55.90;;;;;;5016531;28;20026;-77
2024/01/13 01:10:36;;;;;;;13.80;12.50;;;7.60;55.90;;;;;;5017377;28;20500;-80
2024/01/13 01:13:02;;;;;;;14.23;12.88;;;7.60;56.00;;;;;;5012078;28;20051;-78
2024/01/13 01:15:29;;;;;;;14.30;12.65;;;7.60;55.90;;;;;;5017561;28;20044;-75
2024/01/13 01:17:55;;;;;;;14.68;13.18;;;7.60;55.90;;;;;;5007222;28;20034;-77
2024/01/13 01:20:21;;;;;;;13.82;12.50;;;7.60;55.90;;;;;;5012147;28;20036;-73
2024/01/13 01:22:47;;;;;;;13.93;12.52;;;7.60;55.90;;;;;;5009830;28;20052;-72
2024/01/13 01:25:13;;;;;;;14.15;12.75;;;7.60;55.90;;;;;;5010557;28;20033;-71
2024/01/13 01:27:39;;;;;;;16.42;14.07;;;7.60;55.90;;;;;;5009900;28;20055;-71
2024/01/13 01:30:06;;;;;;;15.05;13.55;;;7.60;55.90;;;;;;5009446;28;20037;-72
2024/01/13 01:32:32;;;;;;;15.45;13.90;;;7.50;55.70;;;;;;5005616;28;20445;-71
2024/01/13 01:34:58;;;;;;;15.02;13.52;;;7.50;55.80;;;;;;5008885;28;20590;-72
2024/01/13 01:37:24;;;;;;;14.82;13.32;;;7.50;55.80;;;;;;5008197;28;20065;-72
2024/01/13 01:39:50;;;;;;;15.77;14.18;;;7.50;55.80;;;;;;5012780;28;20037;-72
2024/01/13 01:42:17;;;;;;;15.20;13.70;;;7.50;55.80;;;;;;5009253;28;20483;-73
2024/01/13 01:44:44;;;;;;;14.57;12.98;;;7.50;55.80;;;;;;5009353;28;20021;-77
2024/01/13 01:47:11;;;;;;;15.40;13.90;;;7.50;55.90;;;;;;5015675;28;20045;-77
2024/01/13 01:49:38;;;;;;;15.18;13.75;;;7.50;55.90;;;;;;5009276;28;20367;-78
2024/01/13 01:52:05;;;;;;;16.05;14.05;;;7.50;55.90;;;;;;5007073;28;20505;-76
2024/01/13 01:54:31;;;;;;;16.13;14.57;;;7.50;55.90;;;;;;4991776;28;20482;-76
2024/01/13 01:56:58;;;;;;;15.70;14.07;;;7.40;55.70;;;;;;5016379;28;20033;-75
2024/01/13 01:59:25;;;;;;;15.68;14.20;;;7.40;55.70;;;;;;5006477;28;20042;-76
2024/01/13 02:01:52;;;;;;;15.57;14.07;;;7.40;55.70;;;;;;5018716;28;20866;-79
2024/01/13 02:04:18;;;;;;;16.50;14.95;;;7.40;55.70;;;;;;5007387;28;20034;-78
2024/01/13 02:06:44;;;;;;;15.88;14.48;;;7.40;55.70;;;;;;5007706;28;20087;-72
2024/01/13 02:09:12;;;;;;;15.93;14.38;;;7.40;55.70;;;;;;5014670;28;20457;-78
2024/01/13 02:11:38;;;;;;;16.00;14.40;;;7.40;55.80;;;;;;5015507;28;20148;-77
2024/01/13 02:14:04;;;;;;;15.93;14.32;;;7.40;55.80;;;;;;5027199;28;20030;-72
2024/01/13 02:16:31;;;;;;;15.77;14.38;;;7.40;55.80;;;;;;5016067;28;20026;-78
2024/01/13 02:18:57;;;;;;;16.08;14.55;;;7.40;55.80;;;;;;5015944;28;20029;-74
2024/01/13 02:21:24;;;;;;;16.55;14.88;;;7.40;55.80;;;;;;5030476;28;20296;-71
2024/01/13 02:23:49;;;;;;;16.27;14.68;;;7.40;55.80;;;;;;5012910;28;20044;-77
2024/01/13 02:26:15;;;;;;;15.50;13.88;;;7.40;56.40;;;;;;5021906;28;20109;-76
2024/01/13 02:28:41;;;;;;;16.02;14.52;;;7.40;55.80;;;;;;5033502;28;20021;-73
2024/01/13 02:31:07;;;;;;;16.95;15.25;;;7.40;55.80;;;;;;5035984;23;20060;-73
2024/01/13 02:33:33;;;;;;;16.10;14.52;;;7.30;55.70;;;;;;5022179;28;21357;-72
2024/01/13 02:36:00;;;;;;;16.73;15.02;;;7.30;55.70;;;;;;5019060;28;20406;-79
2024/01/13 02:38:26;;;;;;;18.55;16.70;;;7.30;56.20;;;;;;5011619;28;20493;-79
2024/01/13 02:40:53;;;;;;;17.80;16.00;;;7.30;55.70;;;;;;5017424;28;20034;-74
2024/01/13 02:43:19;;;;;;;17.67;15.98;;;7.30;55.70;;;;;;5004363;28;20050;-74
2024/01/13 02:45:47;;;;;;;18.98;17.08;;;7.30;55.70;;;;;;5031233;23;20029;-83
2024/01/13 02:48:21;;;;;;;17.15;15.55;;;7.30;55.70;;;;;;5001620;28;20616;-84
2024/01/13 02:51:00;;;;;;;18.88;16.98;;;7.30;55.70;;;;;;5002525;28;20737;-83
2024/01/13 02:53:27;;;;;;;18.73;16.92;;;7.30;56.30;;;;;;4982977;28;20345;-83
2024/01/13 02:55:53;;;;;;;18.17;16.45;;;7.30;55.80;;;;;;4984170;28;20035;-84
2024/01/13 02:58:19;;;;;;;18.92;16.95;;;7.30;56.30;;;;;;4983770;28;20042;-83
2024/01/13 03:00:45;;;;;;;19.77;17.83;;;7.30;55.80;;;;;;4983357;28;20022;-83
2024/01/13 03:03:11;;;;;;;20.48;18.48;;;7.30;55.80;;;;;;4984234;28;20109;-84
2024/01/13 03:05:38;;;;;;;20.45;18.35;;;7.30;55.90;;;;;;4973731;28;20142;-84
2024/01/13 03:08:04;;;;;;;20.35;18.35;;;7.30;55.80;;;;;;4995719;28;20057;-83
2024/01/13 03:10:31;;;;;;;22.58;20.27;;;7.30;55.90;;;;;;4997123;28;20132;-84
2024/01/13 03:12:57;;;;;;;20.35;18.40;;;7.30;55.80;;;;;;4997755;28;20035;-82
2024/01/13 03:15:24;;;;;;;21.42;19.23;;;7.30;55.80;;;;;;4987552;28;20117;-82
2024/01/13 03:17:49;;;;;;;21.23;19.25;;;7.20;55.60;;;;;;4983006;28;20026;-82
2024/01/13 03:20:16;;;;;;;22.73;20.55;;;7.20;55.60;;;;;;4994814;28;20152;-84
2024/01/13 03:22:41;;;;;;;21.88;19.67;;;7.20;55.70;;;;;;5000096;28;20058;-84
2024/01/13 03:25:08;;;;;;;22.67;20.55;;;7.20;55.70;;;;;;4999241;28;20042;-84
2024/01/13 03:27:35;;;;;;;22.60;20.40;;;7.20;55.70;;;;;;4974436;28;20099;-85
2024/01/13 03:30:03;;;;;;;23.42;20.98;;;7.20;55.70;;;;;;4996560;28;20045;-84
2024/01/13 03:32:29;;;;;;;21.80;19.52;;;7.20;55.70;;;;;;4981824;28;20548;-83
2024/01/13 03:34:56;;;;;;;22.77;20.35;;;7.20;55.70;;;;;;4981320;28;20022;-83
2024/01/13 03:37:22;;;;;;;22.65;20.45;;;7.20;56.30;;;;;;4982322;28;20026;-84
2024/01/13 03:39:48;;;;;;;22.95;20.58;;;7.20;55.70;;;;;;4982903;28;20542;-84
2024/01/13 03:42:14;;;;;;;22.15;19.95;;;7.20;55.80;;;;;;4980210;28;20429;-84
2024/01/13 03:44:40;;;;;;;24.23;21.75;;;7.10;55.60;;;;;;4982590;28;20480;-83
2024/01/13 03:47:06;;;;;;;23.65;21.27;;;7.10;55.60;;;;;;4982253;28;20055;-84
2024/01/13 03:49:33;;;;;;;23.73;21.33;;;7.20;55.80;;;;;;4982953;28;20902;-84
2024/01/13 03:51:59;;;;;;;22.92;20.73;;;7.20;55.80;;;;;;4977008;28;20035;-84
2024/01/13 03:54:25;;;;;;;23.45;20.98;;;7.10;55.70;;;;;;4963433;28;20177;-85
2024/01/13 03:56:51;;;;;;;23.63;20.63;;;7.20;55.80;;;;;;4966728;28;20073;-84
2024/01/13 03:59:19;;;;;;;22.67;20.38;;;7.10;56.20;;;;;;4981795;28;20506;-85
2024/01/13 04:01:45;;;;;;;24.40;21.88;;;7.10;55.60;;;;;;4981329;28;20049;-86
2024/01/13 04:04:12;;;;;;;23.70;21.38;;;7.10;55.70;;;;;;4983951;28;20095;-83
2024/01/13 04:06:41;;;;;;;23.50;21.20;;;7.10;55.60;;;;;;4998340;28;20041;-84
2024/01/13 04:09:08;;;;;;;23.80;21.38;;;7.10;55.60;;;;;;4981308;28;20061;-84
2024/01/13 04:11:34;;;;;;;23.20;20.95;;;7.10;55.70;;;;;;4981651;28;20081;-84
2024/01/13 04:14:00;;;;;;;23.83;21.42;;;7.10;55.70;;;;;;4963504;28;20345;-83
2024/01/13 04:16:26;;;;;;;23.50;21.23;;;7.10;55.70;;;;;;4983574;28;20038;-83
2024/01/13 04:18:52;;;;;;;24.70;22.15;;;7.10;55.70;;;;;;4982379;28;20039;-84
2024/01/13 04:21:18;;;;;;;23.80;21.50;;;7.10;55.70;;;;;;4974001;28;20030;-84
2024/01/13 04:23:44;;;;;;;25.42;22.73;;;7.10;55.70;;;;;;4984105;28;20030;-84
2024/01/13 04:26:11;;;;;;;24.85;22.45;;;7.10;55.70;;;;;;4995824;28;20584;-84
2024/01/13 04:28:38;;;;;;;22.52;20.38;;;7.00;55.50;;;;;;4980149;28;20034;-82
2024/01/13 04:31:07;;;;;;;25.42;22.73;;;7.00;55.60;;;;;;4973207;28;20145;-84
2024/01/13 04:33:34;;;;;;;24.45;21.85;;;7.00;55.60;;;;;;4979165;28;20043;-84
2024/01/13 04:36:00;;;;;;;24.15;21.83;;;7.00;55.60;;;;;;4981767;28;20026;-82
2024/01/13 04:38:26;;;;;;;25.02;22.58;;;7.00;55.60;;;;;;4967043;28;20027;-84
2024/01/13 04:40:52;;;;;;;24.30;21.80;;;7.00;55.70;;;;;;4977644;28;20054;-83
2024/01/13 04:43:18;;;;;;;24.85;22.10;;;7.00;55.60;;;;;;4995961;28;20023;-83
2024/01/13 04:45:44;;;;;;;24.52;21.98;;;7.00;55.60;;;;;;4978711;28;20034;-82
2024/01/13 04:48:15;;;;;;;24.13;21.75;;;7.00;55.60;;;;;;4996658;28;20129;-84
2024/01/13 04:50:41;;;;;;;25.00;22.20;;;7.00;55.60;;;;;;4977961;28;20038;-81
2024/01/13 04:53:08;;;;;;;24.48;21.88;;;7.00;55.70;;;;;;4981491;28;20323;-82
2024/01/13 04:55:34;;;;;;;25.30;22.60;;;6.90;55.50;;;;;;4997410;28;20037;-81
2024/01/13 04:58:00;;;;;;;24.38;21.98;;;7.00;55.70;;;;;;4980644;28;20034;-82
2024/01/13 05:00:26;;;;;;;24.20;21.80;;;6.90;55.40;;;;;;4981951;28;20030;-82
2024/01/13 05:02:54;;;;;;;25.15;22.55;;;6.90;55.50;;;;;;4986350;28;20378;-83
2024/01/13 05:05:20;;;;;;;25.77;23.08;;;6.90;55.50;;;;;;4985711;28;20539;-84
2024/01/13 05:07:46;;;;;;;25.40;22.70;;;6.90;55.50;;;;;;4985487;28;20129;-83
2024/01/13 05:10:12;;;;;;;26.00;23.30;;;6.90;55.50;;;;;;4982589;28;20034;-82
2024/01/13 05:12:38;;;;;;;25.27;22.58;;;6.90;55.50;;;;;;4985657;28;20038;-82
2024/01/13 05:15:05;;;;;;;24.92;22.25;;;6.90;55.50;;;;;;4984908;28;20140;-81
2024/01/13 05:17:31;;;;;;;25.10;22.52;;;6.90;55.50;;;;;;4983213;28;20500;-81
2024/01/13 05:19:58;;;;;;;25.15;22.52;;;6.90;55.50;;;;;;4982640;28;20030;-81
2024/01/13 05:22:24;;;;;;;25.83;23.23;;;6.90;55.50;;;;;;4983934;28;20030;-81
2024/01/13 05:24:50;;;;;;;24.95;22.13;;;6.80;55.30;;;;;;4983073;28;20420;-82
2024/01/13 05:27:16;;;;;;;27.75;22.55;;;6.80;55.40;;;;;;4985765;28;20034;-80
2024/01/13 05:29:43;;;;;;;26.05;22.77;;;6.90;55.60;;;;;;5000398;28;20029;-80
2024/01/13 05:32:09;;;;;;;26.27;23.60;;;6.80;55.40;;;;;;4984085;28;20130;-79
2024/01/13 05:34:36;;;;;;;25.20;22.58;;;6.80;55.40;;;;;;4980739;28;20030;-80
2024/01/13 05:37:03;;;;;;;26.27;23.52;;;6.80;55.50;;;;;;4984043;28;20030;-81
2024/01/13 05:39:29;;;;;;;25.60;22.90;;;6.80;55.40;;;;;;4984474;28;20029;-81
2024/01/13 05:41:55;;;;;;;26.33;23.50;;;6.80;55.50;;;;;;4984874;28;20048;-82
2024/01/13 05:44:21;;;;;;;25.92;23.10;;;6.80;55.40;;;;;;4986092;28;20587;-80
2024/01/13 05:46:47;;;;;;;26.15;23.35;;;6.80;55.40;;;;;;4986704;28;20046;-80
2024/01/13 05:49:13;;;;;;;24.52;22.02;;;6.80;55.50;;;;;;4975687;28;20052;-80
2024/01/13 05:51:40;;;;;;;23.58;21.15;;;6.80;55.50;;;;;;4993362;28;20042;-79
2024/01/13 05:54:06;;;;;;;24.95;21.98;;;6.80;55.50;;;;;;4979192;28;20038;-79
2024/01/13 05:56:33;;;;;;;23.88;21.33;;;6.80;55.50;;;;;;4995472;28;20034;-78
2024/01/13 05:58:59;;;;;;;24.55;21.85;;;6.70;55.30;;;;;;4981031;28;20028;-79
2024/01/13 06:01:25;;;;;;;24.23;21.73;;;6.80;55.50;;;;;;4980092;28;20030;-80
2024/01/13 06:03:51;;;;;;;25.33;22.20;;;6.70;55.30;;;;;;4976229;28;20344;-80
2024/01/13 06:06:17;;;;;;;23.65;21.23;;;6.80;55.50;;;;;;4979284;28;20144;-78
2024/01/13 06:08:44;;;;;;;23.83;21.38;;;6.70;55.30;;;;;;4980941;28;20061;-80
2024/01/13 06:11:10;;;;;;;22.50;19.90;;;6.70;55.40;;;;;;5003750;28;20054;-81
2024/01/13 06:13:36;;;;;;;27.65;23.00;;;6.70;55.40;;;;;;4995212;28;20007;-82
2024/01/13 06:16:03;;;;;;;23.40;20.85;;;6.70;55.40;;;;;;5016396;28;20038;-86
2024/01/13 06:18:29;;;;;;;23.73;21.23;;;6.70;55.40;;;;;;5000431;28;20042;-81
2024/01/13 06:20:55;;;;;;;24.20;21.70;;;6.60;55.20;;;;;;5015452;28;20019;-80
2024/01/13 06:23:21;;;;;;;24.90;21.80;;;6.60;55.20;;;;;;5012351;28;20045;-83
2024/01/13 06:25:48;;;;;;;23.95;20.98;;;6.60;55.30;;;;;;5003726;28;20034;-84
2024/01/13 06:28:14;;;;;;;24.98;22.15;;;6.70;55.50;;;;;;5004238;28;20113;-83
2024/01/13 06:30:42;;;;;;;24.65;22.05;;;6.60;55.40;;;;;;4973234;28;20031;-84
2024/01/13 06:33:08;;;;;;;23.60;21.13;;;6.60;55.40;;;;;;4966533;28;20048;-83
2024/01/13 06:35:34;;;;;;;23.45;20.92;;;6.60;55.40;;;;;;4982087;28;20042;-84
2024/01/13 06:38:01;;;;;;;25.15;22.58;;;6.60;55.40;;;;;;4994510;28;20045;-84
2024/01/13 06:40:27;;;;;;;23.73;21.00;;;6.60;55.40;;;;;;4990453;28;20172;-82
2024/01/13 06:42:53;;;;;;;24.73;21.92;;;6.60;55.40;;;;;;4979446;28;20044;-83
2024/01/13 06:45:19;;;;;;;26.02;21.95;;;6.60;55.40;;;;;;4976424;28;20034;-83
2024/01/13 06:47:45;;;;;;;24.40;21.75;;;6.60;55.40;;;;;;4971633;28;20047;-83
2024/01/13 06:50:11;;;;;;;23.50;21.02;;;6.50;55.20;;;;;;4978518;28;20069;-83
2024/01/13 06:52:39;;;;;;;24.25;20.77;;;6.50;55.20;;;;;;4976005;28;20066;-83
2024/01/13 06:55:07;;;;;;;24.23;21.67;;;6.50;55.20;;;;;;4978136;28;20171;-83
2024/01/13 06:57:33;;;;;;;22.30;19.50;;;6.50;55.20;;;;;;4978297;28;20030;-84
2024/01/13 07:00:00;;;;;;;24.50;21.05;;;6.50;55.20;;;;;;4995730;28;20565;-84
2024/01/13 07:02:25;;;;;;;23.40;20.90;;;6.50;55.70;;;;;;4978558;28;20038;-84
2024/01/13 07:04:51;;;;;;;22.15;19.75;;;6.50;55.20;;;;;;4974022;28;20088;-84
2024/01/13 07:07:19;;;;;;;25.05;20.48;;;6.40;55.00;;;;;;4980078;28;20034;-83
2024/01/13 07:09:44;;;;;;;21.85;18.88;;;6.40;55.00;;;;;;4975089;28;20041;-83
2024/01/13 07:12:10;;;;;;;21.75;19.13;;;6.40;55.00;;;;;;4977240;28;20562;-85
2024/01/13 07:14:36;;;;;;;21.95;19.60;;;6.40;55.00;;;;;;4978192;28;20211;-78
2024/01/13 07:17:02;;;;;;;24.40;20.85;;;6.40;55.00;;;;;;4978907;28;20030;-83
2024/01/13 07:19:28;;;;;;;22.40;19.70;;;6.40;55.00;;;;;;4976814;28;20038;-80
2024/01/13 07:21:54;;;;;;;20.52;18.00;;;6.40;55.00;;;;;;4976151;28;20069;-81
2024/01/13 07:24:20;;;;;;;22.42;18.83;;;6.40;55.10;;;;;;4971534;28;20385;-80
2024/01/13 07:26:47;;;;;;;20.27;17.83;;;6.40;55.00;;;;;;4970300;28;20046;-82
2024/01/13 07:29:13;;;;;;;20.77;18.55;;;6.30;54.90;;;;;;4991980;28;20433;-82
2024/01/13 07:31:39;;;;;;;22.23;17.63;;;6.30;54.90;;;;;;4985880;28;20034;-82
2024/01/13 07:34:05;;;;;;;21.00;18.60;;;6.30;54.90;;;;;;4968643;28;20129;-81
2024/01/13 07:36:31;;;;;;;19.75;17.67;;;6.30;54.90;;;;;;4965665;28;20109;-82
2024/01/13 07:38:58;;;;;;;20.65;17.52;;;6.40;55.00;;;;;;4963536;28;20100;-83
2024/01/13 07:41:24;;;;;;;20.70;17.48;;;6.30;54.90;;;;;;4969052;28;20038;-82
2024/01/13 07:43:50;;;;;;;21.45;17.85;;;6.30;54.90;;;;;;4971789;28;20040;-83
2024/01/13 07:46:16;;;;;;;17.67;15.85;;;6.30;54.90;;;;;;4982742;28;20790;-82
2024/01/13 07:48:42;;;;;;;20.15;17.33;;;6.30;54.90;;;;;;4963049;28;20247;-82
2024/01/13 07:51:08;;;;;;;18.55;16.45;;;6.30;54.90;;;;;;4969015;28;20046;-84
2024/01/13 07:53:34;;;;;;;20.65;16.52;;;6.30;54.90;;;;;;4972126;28;20061;-83
2024/01/13 07:56:01;;;;;;;17.98;16.08;;;6.20;54.70;;;;;;4976315;28;20492;-84
2024/01/13 07:58:27;;;;;;;18.65;16.38;;;6.20;54.70;;;;;;4973915;28;20389;-84
2024/01/13 08:00:53;;;;;;;21.02;16.38;;;6.20;54.70;;;;;;4972811;28;20026;-82
2024/01/13 08:03:19;;;;;;;17.55;15.52;;;6.20;54.80;;;;;;4969878;28;20030;-81
2024/01/13 08:05:46;;;;;;;20.45;15.73;;;6.20;54.80;;;;;;4976110;28;20026;-81
2024/01/13 08:08:13;;;;;;;18.60;15.50;;;6.20;54.80;;;;;;4961480;28;20038;-82
2024/01/13 08:10:39;;;;;;;19.13;15.77;;;6.20;54.80;;;;;;4967914;28;20456;-81
2024/01/13 08:13:05;;;;;;;21.15;16.35;;;6.20;54.80;;;;;;4963950;28;20374;-87
2024/01/13 08:15:31;;;;;;;18.17;15.20;;;6.20;54.80;;;;;;4959768;28;20117;-86
2024/01/13 08:17:58;;;;;;;13.68;12.20;;;6.10;54.60;;;;;;4996907;28;20093;-82
2024/01/13 08:20:26;;;;;;;13.82;11.40;;;6.20;54.80;;;;;;4983357;28;20066;-81
2024/01/13 08:22:52;;;;;;;17.60;13.07;;;6.20;55.40;;;;;;4983282;28;20023;-82
2024/01/13 08:25:18;;;;;;;13.82;11.82;;;6.20;55.80;;;;;;4990039;28;20574;-82
2024/01/13 08:27:44;;;;;;;17.95;12.77;;;6.30;56.20;;;;;;4992585;28;20035;-79
2024/01/13 08:30:10;;;;;;;14.18;12.05;;;6.30;56.20;;;;;;4966186;28;20054;-82
2024/01/13 08:32:36;;;;;;;16.15;13.50;;;6.30;56.30;;;;;;4974224;28;20049;-92
2024/01/13 08:35:08;;;;;;;20.27;13.10;;;6.30;56.20;;;;;;4997988;28;20098;-91
2024/01/13 08:37:36;;;;;;;18.35;13.25;;;6.40;56.60;;;;;;5007748;28;20038;-84
2024/01/13 08:40:04;;;;;;;15.55;13.38;;;6.40;56.60;;;;;;4980917;28;20102;-89
2024/01/13 08:42:31;;;;;;;17.45;11.07;;;6.40;56.70;;;;;;4985703;28;20033;-90
2024/01/13 08:44:57;;;;;;;16.50;11.63;;;6.40;56.70;;;;;;4983164;28;20038;-82
2024/01/13 08:47:24;;;;;;;14.60;12.18;;;6.50;57.20;;;;;;4985221;28;20377;-81
2024/01/13 08:49:51;;;;;;;18.48;12.10;;;6.60;57.70;;;;;;4980698;28;20042;-82
2024/01/13 08:52:17;;;;;;;17.20;13.13;;;6.70;57.90;;;;;;4991770;28;20051;-81
2024/01/13 08:54:44;;;;;;;15.23;11.98;;;6.70;57.90;;;;;;4990162;28;20035;-82
2024/01/13 08:57:10;;;;;;;14.70;13.13;;;6.80;58.00;;;;;;4983938;28;20231;-82
2024/01/13 08:59:38;;;;;;;15.07;13.40;;;6.80;57.90;;;;;;4975550;28;20524;-82
2024/01/13 09:02:06;;;;;;;17.10;12.93;;;6.80;57.90;;;;;;4958125;28;20138;-83
2024/01/13 09:04:32;;;;;;;15.93;13.18;;;6.80;57.90;;;;;;4977428;28;20395;-82
2024/01/13 09:06:58;;;;;;;16.30;13.20;;;6.80;57.80;;;;;;4976424;28;20034;-82
2024/01/13 09:09:24;;;;;;;18.38;13.88;;;6.80;57.80;;;;;;4967917;28;20027;-80
2024/01/13 09:11:50;;;;;;;17.13;12.85;;;6.80;57.70;;;;;;4969438;28;20161;-84
2024/01/13 09:14:16;;;;;;;15.40;13.07;;;6.80;57.70;;;;;;4970003;28;20034;-84
2024/01/13 09:16:44;;;;;;;16.25;12.98;;;6.80;57.60;;;;;;4973037;28;20041;-85
2024/01/13 09:19:10;;;;;;;16.05;13.02;;;6.80;57.60;;;;;;4985686;28;20205;-83
2024/01/13 09:21:37;;;;;;;18.35;14.80;;;6.80;57.60;;;;;;4967186;28;20026;-82
2024/01/13 09:24:03;;;;;;;15.73;13.73;;;6.80;57.50;;;;;;4971900;28;20054;-80
2024/01/13 09:26:30;;;;;;;18.05;13.60;;;6.80;57.40;;;;;;4974086;28;20042;-83
2024/01/13 09:28:56;;;;;;;16.95;14.25;;;6.80;57.40;;;;;;4968619;28;20053;-82
2024/01/13 09:31:22;;;;;;;17.83;13.57;;;6.80;57.30;;;;;;4971194;28;20345;-83
2024/01/13 09:33:49;;;;;;;16.17;14.32;;;6.80;57.20;;;;;;4991136;28;20381;-83
2024/01/13 09:36:15;;;;;;;16.90;13.57;;;6.80;57.10;;;;;;4972023;28;20449;-81
2024/01/13 09:38:41;;;;;;;16.92;13.73;;;6.80;57.10;;;;;;4975412;28;20049;-82
2024/01/13 09:41:07;;;;;;;16.15;13.63;;;6.80;57.00;;;;;;4980130;28;20045;-82
2024/01/13 09:43:51;;;;;;;16.70;14.75;;;6.80;56.90;;;;;;4968251;28;20500;-83
2024/01/13 09:46:17;;;;;;;16.33;13.27;;;6.90;57.00;;;;;;4977248;28;20511;-81
2024/01/13 09:48:45;;;;;;;18.15;14.15;;;6.80;56.70;;;;;;4985104;28;20153;-81
2024/01/13 09:51:11;;;;;;;16.15;13.05;;;6.90;56.90;;;;;;4972537;28;20538;-81
2024/01/13 09:53:47;;;;;;;15.68;14.02;;;6.90;56.80;;;;;;4973260;28;20042;-81
2024/01/13 09:56:25;;;;;;;18.48;13.70;;;6.90;56.70;;;;;;4977239;28;20108;-81
2024/01/13 09:58:52;;;;;;;16.80;14.15;;;6.90;56.60;;;;;;4968557;28;20211;-80
2024/01/13 10:01:18;;;;;;;15.75;12.60;;;7.00;56.70;;;;;;4974393;28;20114;-81
2024/01/13 10:03:45;;;;;;;15.95;13.65;;;7.00;56.60;;;;;;4990432;28;20098;-80
2024/01/13 10:06:12;;;;;;;17.45;14.13;;;7.00;56.50;;;;;;4976151;28;20118;-80
2024/01/13 10:08:38;;;;;;;16.13;13.68;;;7.00;56.50;;;;;;4972342;28;20065;-81
2024/01/13 10:11:05;;;;;;;16.27;13.20;;;7.00;56.40;;;;;;4970519;28;20046;-80
2024/01/13 10:13:32;;;;;;;16.80;13.88;;;7.00;56.20;;;;;;4960293;28;20034;-80
2024/01/13 10:16:04;;;;;;;15.80;13.75;;;7.10;56.30;;;;;;4985376;28;20097;-78
2024/01/13 10:18:34;;;;;;;17.15;13.27;;;7.10;56.30;;;;;;4990841;28;20043;-79
2024/01/13 10:21:05;;;;;;;15.55;13.05;;;7.10;56.20;;;;;;4984962;28;20034;-81
2024/01/13 10:23:32;;;;;;;16.05;13.63;;;7.20;56.30;;;;;;4983525;28;20368;-80
2024/01/13 10:25:59;;;;;;;15.07;13.00;;;7.20;56.20;;;;;;5003892;28;20057;-80
2024/01/13 10:28:29;;;;;;;15.35;13.10;;;7.20;56.10;;;;;;4978804;28;20062;-81
2024/01/13 10:30:55;;;;;;;16.48;13.48;;;7.30;56.20;;;;;;4965528;28;20383;-83
2024/01/13 10:33:23;;;;;;;16.63;14.48;;;7.30;56.10;;;;;;4988341;28;20038;-81
2024/01/13 10:35:49;;;;;;;15.38;13.13;;;7.30;56.00;;;;;;4976105;28;20082;-82
2024/01/13 10:38:18;;;;;;;17.45;13.85;;;7.30;55.90;;;;;;4973290;28;20113;-83
2024/01/13 10:40:44;;;;;;;15.70;12.90;;;7.40;56.00;;;;;;4969619;28;20037;-82
2024/01/13 10:43:18;;;;;;;17.23;13.63;;;7.40;55.90;;;;;;4989354;28;20038;-83
2024/01/13 10:45:49;;;;;;;16.95;13.20;;;7.40;55.80;;;;;;4974791;28;20579;-81
2024/01/13 10:48:34;;;;;;;15.93;13.15;;;7.50;56.40;;;;;;4968192;28;20447;-82
2024/01/13 10:51:02;;;;;;;16.13;13.40;;;7.50;55.80;;;;;;4944506;28;20061;-81
2024/01/13 10:53:39;;;;;;;14.88;13.30;;;7.50;55.70;;;;;;4976996;28;20042;-82
2024/01/13 10:56:06;;;;;;;13.50;11.98;;;7.50;55.60;;;;;;4965496;28;20437;-80
2024/01/13 10:58:33;;;;;;;15.88;14.15;;;7.60;55.70;;;;;;4976508;28;20145;-81
2024/01/13 11:00:59;;;;;;;15.25;13.50;;;7.60;55.60;;;;;;4989420;28;20269;-80
2024/01/13 11:03:27;;;;;;;17.17;14.35;;;7.60;55.50;;;;;;4985164;28;20089;-81
2024/01/13 11:05:55;;;;;;;15.20;13.02;;;7.60;55.50;;;;;;4954189;28;20499;-83
2024/01/13 11:08:21;;;;;;;16.40;13.48;;;7.70;55.50;;;;;;4973754;28;20045;-83
2024/01/13 11:10:50;;;;;;;18.33;12.98;;;7.70;55.40;;;;;;4983770;28;20034;-78
2024/01/13 11:13:24;;;;;;;12.88;10.82;;;7.70;55.40;;;;;;4991951;28;20034;-78
2024/01/13 11:15:59;;;;;;;12.95;10.65;;;7.80;56.00;;;;;;4964571;28;20042;-78
2024/01/13 11:18:47;;;;;;;12.88;10.00;;;7.90;56.50;;;;;;4973639;28;20125;-78
2024/01/13 11:21:19;;;;;;;15.55;11.20;;;8.10;57.10;;;;;;4991984;28;20249;-80
2024/01/13 11:23:54;;;;;;;;;;;8.20;57.40;;;;;;4982353;28;20041;-79
2024/01/13 11:26:27;;;;;;;17.20;11.68;;;8.40;57.70;;;;;;4987886;28;20018;-80
2024/01/13 11:28:56;;;;;;;16.02;12.15;;;8.60;57.60;;;;;;4980761;28;20026;-86
2024/01/13 11:31:45;;;;;;;13.65;12.00;;;8.70;57.70;;;;;;4983923;28;20184;-79
2024/01/13 11:34:14;;;;;;;15.55;12.30;;;8.90;58.10;;;;;;4976896;28;20030;-81
2024/01/13 11:36:52;;;;;;;16.92;12.30;;;9.00;58.10;;;;;;4978814;28;20042;-81
2024/01/13 11:39:24;;;;;;;18.50;13.75;;;9.10;58.40;;;;;;4992859;28;20096;-80
2024/01/13 11:41:55;;;;;;;20.38;13.52;;;9.20;58.60;;;;;;4971742;28;20030;-79
2024/01/13 11:44:37;;;;;;;19.65;14.05;;;9.30;58.90;;;;;;4975008;28;20041;-79
2024/01/13 11:47:10;;;;;;;23.80;14.85;;;9.40;59.40;;;;;;4975434;28;20118;-82
2024/01/13 11:49:40;;;;;;;24.63;16.27;;;9.40;59.60;;;;;;5004468;28;20042;-83
2024/01/13 11:52:09;;;;;;;20.77;15.73;;;9.50;59.80;;;;;;4986919;28;20046;-82
2024/01/13 11:54:37;;;;;;;61.15;38.17;;;9.60;60.10;;;;;;4972352;28;20038;-80
2024/01/13 11:57:11;;;;;;;120.38;71.28;;;9.60;60.20;;;;;;4996104;28;20290;-79
2024/01/13 11:59:38;;;;;;;88.57;56.13;;;9.60;60.40;;;;;;4978181;28;20338;-77
2024/01/13 12:02:06;;;;;;;70.68;45.55;;;9.60;60.40;;;;;;4974597;28;20042;-81
2024/01/13 12:04:34;;;;;;;66.78;46.50;;;9.60;60.40;;;;;;4972041;28;20172;-82
2024/01/13 12:07:01;;;;;;;63.78;43.42;;;9.50;60.20;;;;;;4986957;28;20109;-81
2024/01/13 12:09:28;;;;;;;65.70;44.95;;;9.50;60.20;;;;;;4992309;28;20486;-82
2024/01/13 12:11:58;;;;;;;62.35;40.00;;;9.50;60.10;;;;;;4981443;28;20116;-81
2024/01/13 12:14:34;;;;;;;58.88;36.65;;;9.50;60.10;;;;;;4984819;28;20705;-81
2024/01/13 12:17:01;;;;;;;49.35;35.72;;;9.50;60.00;;;;;;4996930;28;20130;-83
2024/01/13 12:19:32;;;;;;;49.33;34.08;;;9.50;59.90;;;;;;4971983;28;20429;-83
2024/01/13 12:21:58;;;;;;;61.78;43.42;;;9.50;59.80;;;;;;4983775;28;20540;-83
2024/01/13 12:24:29;;;;;;;64.97;42.10;;;9.40;59.60;;;;;;4976224;28;20122;-81
2024/01/13 12:26:56;;;;;;;54.25;38.47;;;9.50;59.70;;;;;;4976713;28;20038;-81
2024/01/13 12:29:29;;;;;;;144.60;87.90;;;9.50;59.50;;;;;;4970540;28;20030;-81
2024/01/13 12:32:05;;;;;;;129.93;82.55;;;9.50;59.60;;;;;;4996431;28;20046;-83
2024/01/13 12:34:35;;;;;;;114.72;72.53;;;9.50;60.00;;;;;;5015413;28;20158;-83
2024/01/13 12:37:03;;;;;;;105.82;65.80;;;9.60;60.10;;;;;;5015602;28;20053;-82
2024/01/13 12:39:31;;;;;;;99.68;64.53;;;9.70;60.20;;;;;;4999670;28;20018;-82